createdAt,value
2018-05-12T00:01:17.597Z,5.87
2018-05-12T00:03:47.550Z,5.57
2018-05-12T00:06:18.232Z,5.30
2018-05-12T00:08:48.204Z,5.77
2018-05-12T00:11:21.388Z,5.47
2018-05-12T00:13:52.107Z,5.40
2018-05-12T00:16:22.057Z,6.93
2018-05-12T00:18:52.014Z,6.73
2018-05-12T00:21:21.935Z,7.17
2018-05-12T00:23:51.885Z,5.27
2018-05-12T00:26:21.803Z,6.27
2018-05-12T00:28:51.739Z,5.67
2018-05-12T00:31:21.659Z,6.10
2018-05-12T00:33:52.387Z,4.93
2018-05-12T00:36:22.292Z,5.23
2018-05-12T00:38:52.263Z,5.33
2018-05-12T00:41:22.191Z,5.57
2018-05-12T00:43:52.907Z,4.43
2018-05-12T00:46:23.608Z,5.83
2018-05-12T00:48:53.591Z,4.80
2018-05-12T00:51:23.509Z,5.30
2018-05-12T00:53:53.446Z,5.10
2018-05-12T00:56:23.370Z,5.20
2018-05-12T00:58:53.297Z,6.40
2018-05-12T01:01:23.202Z,5.83
2018-05-12T01:03:53.127Z,6.13
2018-05-12T01:06:23.093Z,5.93
2018-05-12T01:08:53.019Z,5.93
2018-05-12T01:11:22.943Z,7.63
2018-05-12T01:13:52.861Z,6.57
2018-05-12T01:16:22.768Z,6.00
2018-05-12T01:18:52.687Z,6.73
2018-05-12T01:21:22.643Z,6.23
2018-05-12T01:23:52.556Z,6.63
2018-05-12T01:26:22.488Z,6.20
2018-05-12T01:28:52.393Z,5.90
2018-05-12T01:31:22.332Z,6.57
2018-05-12T01:33:52.234Z,9.33
2018-05-12T01:36:22.187Z,8.47
2018-05-12T01:38:52.168Z,8.20
2018-05-12T01:41:22.103Z,6.50
2018-05-12T01:43:52.030Z,6.30
2018-05-12T01:46:21.957Z,6.37
2018-05-12T01:48:51.872Z,6.53
2018-05-12T01:51:22.569Z,6.40
2018-05-12T01:53:52.499Z,6.50
2018-05-12T01:56:22.462Z,9.00
2018-05-12T01:58:52.367Z,6.90
2018-05-12T02:01:22.332Z,7.37
2018-05-12T02:03:52.262Z,7.47
2018-05-12T02:06:22.161Z,8.07
2018-05-12T02:08:52.189Z,6.90
2018-05-12T02:11:22.112Z,7.50
2018-05-12T02:13:52.796Z,7.13
2018-05-12T02:16:22.731Z,7.73
2018-05-12T02:18:52.659Z,7.33
2018-05-12T02:21:22.601Z,6.23
2018-05-12T02:23:53.288Z,8.37
2018-05-12T02:26:23.234Z,8.67
2018-05-12T02:28:53.909Z,8.10
2018-05-12T02:31:23.828Z,8.73
2018-05-12T02:33:53.740Z,6.93
2018-05-12T02:36:23.648Z,8.67
2018-05-12T02:39:07.266Z,7.53
2018-05-12T02:41:37.194Z,8.73
2018-05-12T02:44:07.125Z,9.40
2018-05-12T02:46:37.035Z,7.57
2018-05-12T02:49:06.940Z,7.67
2018-05-12T02:51:36.882Z,8.50
2018-05-12T02:54:06.783Z,8.37
2018-05-12T02:56:36.698Z,8.47
2018-05-12T02:59:06.707Z,8.60
2018-05-12T03:01:36.622Z,8.03
2018-05-12T03:04:06.792Z,7.43
2018-05-12T03:06:37.497Z,8.50
2018-05-12T03:09:07.417Z,8.90
2018-05-12T03:11:37.323Z,7.37
2018-05-12T03:14:07.241Z,8.50
2018-05-12T03:16:37.927Z,7.90
2018-05-12T03:19:07.850Z,8.43
2018-05-12T03:21:37.792Z,9.23
2018-05-12T03:24:07.722Z,8.13
2018-05-12T03:26:37.684Z,9.20
2018-05-12T03:29:07.627Z,8.33
2018-05-12T03:31:37.587Z,8.83
2018-05-12T03:34:07.496Z,9.77
2018-05-12T03:36:37.452Z,9.93
2018-05-12T03:39:08.144Z,9.30
2018-05-12T03:41:38.079Z,10.17
2018-05-12T03:44:08.010Z,10.27
2018-05-12T03:46:37.965Z,9.73
2018-05-12T03:49:07.897Z,10.57
2018-05-12T03:51:37.911Z,9.47
2018-05-12T03:54:07.809Z,9.63
2018-05-12T03:56:38.524Z,10.47
2018-05-12T03:59:08.430Z,11.63
2018-05-12T04:01:38.400Z,10.73
2018-05-12T04:04:25.920Z,12.07
2018-05-12T04:07:13.851Z,10.83
2018-05-12T04:12:51.819Z,10.60
2018-05-12T04:15:21.757Z,11.83
2018-05-12T04:17:52.451Z,10.70
2018-05-12T04:20:23.193Z,10.67
2018-05-12T04:22:53.126Z,11.97
2018-05-12T04:25:23.831Z,11.43
2018-05-12T04:27:54.494Z,10.27
2018-05-12T04:30:25.184Z,11.47
2018-05-12T04:32:55.139Z,11.83
2018-05-12T04:35:25.058Z,11.93
2018-05-12T04:37:55.756Z,11.17
2018-05-12T04:40:25.716Z,14.40
2018-05-12T04:42:55.640Z,11.03
2018-05-12T04:45:25.561Z,12.53
2018-05-12T04:47:55.479Z,12.40
2018-05-12T04:50:25.416Z,13.87
2018-05-12T04:52:55.339Z,11.93
2018-05-12T04:55:25.236Z,13.57
2018-05-12T04:57:55.163Z,14.53
2018-05-12T05:00:25.096Z,14.67
2018-05-12T05:02:55.026Z,13.33
2018-05-12T05:05:25.709Z,14.73
2018-05-12T05:07:55.692Z,15.87
2018-05-12T05:10:25.611Z,15.33
2018-05-12T05:12:55.517Z,16.10
2018-05-12T05:15:25.456Z,15.40
2018-05-12T05:17:55.371Z,16.03
2018-05-12T05:20:25.276Z,16.40
2018-05-12T05:22:55.209Z,15.97
2018-05-12T05:25:25.106Z,15.27
2018-05-12T05:27:55.075Z,14.77
2018-05-12T05:30:25.769Z,15.13
2018-05-12T05:32:55.934Z,16.07
2018-05-12T05:35:25.890Z,15.60
2018-05-12T05:37:55.844Z,16.93
2018-05-12T05:40:26.267Z,15.63
2018-05-12T05:42:57.003Z,16.33
2018-05-12T05:45:26.950Z,16.60
2018-05-12T05:47:56.910Z,17.77
2018-05-12T05:50:26.830Z,16.57
2018-05-12T05:52:56.814Z,17.03
2018-05-12T05:55:26.774Z,16.80
2018-05-12T05:58:10.179Z,16.77
2018-05-12T06:00:40.106Z,15.27
2018-05-12T06:03:10.856Z,15.70
2018-05-12T06:05:41.557Z,15.90
2018-05-12T06:08:11.512Z,15.77
2018-05-12T06:10:42.349Z,17.63
2018-05-12T06:13:13.086Z,16.63
2018-05-12T06:15:43.019Z,16.63
2018-05-12T06:18:13.049Z,16.80
2018-05-12T06:20:43.680Z,15.87
2018-05-12T06:23:13.659Z,16.97
2018-05-12T06:25:43.580Z,16.97
2018-05-12T06:28:13.540Z,16.00
2018-05-12T06:30:44.212Z,16.47
2018-05-12T06:33:14.138Z,17.13
2018-05-12T06:35:44.061Z,16.67
2018-05-12T06:38:13.993Z,16.90
2018-05-12T06:40:43.947Z,16.13
2018-05-12T06:43:17.511Z,16.33
2018-05-12T06:45:47.441Z,16.80
2018-05-12T06:48:17.389Z,16.83
2018-05-12T06:50:47.393Z,16.40
2018-05-12T06:53:17.282Z,16.27
2018-05-12T06:55:47.247Z,16.63
2018-05-12T06:58:17.181Z,17.03
2018-05-12T07:00:51.984Z,16.80
2018-05-12T07:03:21.893Z,16.13
2018-05-12T07:05:52.564Z,15.83
2018-05-12T07:08:47.552Z,15.90
2018-05-12T07:11:17.491Z,14.77
2018-05-12T07:13:47.446Z,14.83
2018-05-12T07:16:17.389Z,13.97
2018-05-12T07:18:49.366Z,15.90
2018-05-12T07:21:19.317Z,15.60
2018-05-12T07:23:49.276Z,15.67
2018-05-12T07:26:19.221Z,16.60
2018-05-12T07:28:49.181Z,16.00
2018-05-12T07:31:19.103Z,17.00
2018-05-12T07:33:49.067Z,17.63
2018-05-12T07:36:18.990Z,18.13
2018-05-12T07:38:48.958Z,16.60
2018-05-12T07:41:18.891Z,17.80
2018-05-12T07:43:48.855Z,17.60
2018-05-12T07:46:19.530Z,16.90
2018-05-12T07:48:49.483Z,16.03
2018-05-12T07:51:19.396Z,14.53
2018-05-12T07:53:49.360Z,14.83
2018-05-12T07:56:19.300Z,15.63
2018-05-12T07:58:49.274Z,15.73
2018-05-12T08:01:19.184Z,14.07
2018-05-12T08:03:49.163Z,15.43
2018-05-12T08:06:19.101Z,15.97
2018-05-12T08:08:49.843Z,14.87
2018-05-12T08:11:19.774Z,14.77
2018-05-12T08:13:49.755Z,13.87
2018-05-12T08:16:20.446Z,13.50
2018-05-12T08:18:50.410Z,13.40
2018-05-12T08:21:21.105Z,12.80
2018-05-12T08:23:51.078Z,12.00
2018-05-12T08:26:20.992Z,11.70
2018-05-12T08:28:50.944Z,10.90
2018-05-12T08:31:20.889Z,10.63
2018-05-12T08:33:51.602Z,10.20
2018-05-12T08:36:21.537Z,12.30
2018-05-12T08:38:52.271Z,11.83
2018-05-12T08:41:22.988Z,10.43
2018-05-12T08:43:52.915Z,10.97
2018-05-12T08:46:23.617Z,10.93
2018-05-12T08:48:53.543Z,10.87
2018-05-12T08:51:23.485Z,10.47
2018-05-12T08:53:53.417Z,11.77
2018-05-12T08:56:23.390Z,12.17
2018-05-12T08:58:54.069Z,13.30
2018-05-12T09:01:23.998Z,12.10
2018-05-12T09:03:53.966Z,10.80
2018-05-12T09:06:24.662Z,11.63
2018-05-12T09:08:54.630Z,10.13
2018-05-12T09:11:24.547Z,12.50
2018-05-12T09:13:54.504Z,10.53
2018-05-12T09:16:24.445Z,11.43
2018-05-12T09:18:55.175Z,10.90
2018-05-12T09:21:25.835Z,9.87
2018-05-12T09:23:55.793Z,11.27
2018-05-12T09:26:25.740Z,10.10
2018-05-12T09:28:55.721Z,9.20
2018-05-12T09:31:25.652Z,7.13
2018-05-12T09:33:55.597Z,7.50
2018-05-12T09:36:25.516Z,6.67
2018-05-12T09:38:55.456Z,7.13
2018-05-12T09:41:25.389Z,7.97
2018-05-12T09:43:55.361Z,8.63
2018-05-12T09:46:25.274Z,7.37
2018-05-12T09:48:55.300Z,5.77
2018-05-12T09:51:25.222Z,6.20
2018-05-12T09:53:55.178Z,6.30
2018-05-12T09:56:25.075Z,6.10
2018-05-12T09:58:54.976Z,8.63
2018-05-12T10:01:24.905Z,7.17
2018-05-12T10:03:54.809Z,5.60
2018-05-12T10:06:24.715Z,6.17
2018-05-12T10:08:54.658Z,7.10
2018-05-12T10:11:24.636Z,7.87
2018-05-12T10:13:54.538Z,7.00
2018-05-12T10:16:24.446Z,7.17
2018-05-12T10:18:54.360Z,7.00
2018-05-12T10:21:24.269Z,10.57
2018-05-12T10:23:54.223Z,10.77
2018-05-12T10:26:24.155Z,8.73
2018-05-12T10:28:54.825Z,8.63
2018-05-12T10:31:24.720Z,8.93
2018-05-12T10:33:55.418Z,7.93
2018-05-12T10:36:25.338Z,7.23
2018-05-12T10:38:56.083Z,7.00
2018-05-12T10:41:26.094Z,7.10
2018-05-12T10:43:56.771Z,7.57
2018-05-12T10:46:26.678Z,7.33
2018-05-12T10:48:56.588Z,6.93
2018-05-12T10:51:27.483Z,7.67
2018-05-12T10:53:57.379Z,6.67
2018-05-12T10:56:27.325Z,6.77
2018-05-12T10:58:58.091Z,6.40
2018-05-12T11:01:28.755Z,6.53
2018-05-12T11:03:58.713Z,5.87
2018-05-12T11:06:28.644Z,5.87
2018-05-12T11:08:58.562Z,5.57
2018-05-12T11:11:29.266Z,8.77
2018-05-12T11:13:59.177Z,5.93
2018-05-12T11:16:29.895Z,6.70
2018-05-12T11:18:59.812Z,4.50
2018-05-12T11:21:30.592Z,6.33
2018-05-12T11:24:00.674Z,5.10
2018-05-12T11:26:30.695Z,4.53
2018-05-12T11:29:00.608Z,4.47
2018-05-12T11:31:31.259Z,5.13
2018-05-12T11:34:01.185Z,5.77
2018-05-12T11:36:31.082Z,4.37
2018-05-12T11:39:01.010Z,5.13
2018-05-12T11:41:30.926Z,4.70
2018-05-12T11:44:00.858Z,3.40
2018-05-12T11:46:30.801Z,4.63
2018-05-12T11:49:01.504Z,4.10
2018-05-12T11:51:31.433Z,4.33
2018-05-12T11:54:02.143Z,3.53
2018-05-12T11:56:32.053Z,4.10
2018-05-12T11:59:01.967Z,4.97
2018-05-12T12:01:31.882Z,4.07
2018-05-12T12:04:01.826Z,7.13
2018-05-12T12:06:32.514Z,3.27
2018-05-12T12:09:02.421Z,4.53
2018-05-12T12:11:32.323Z,4.07
2018-05-12T12:14:02.236Z,3.40
2018-05-12T12:16:32.202Z,2.50
2018-05-12T12:19:02.126Z,2.63
2018-05-12T12:21:32.821Z,3.10
2018-05-12T12:24:02.725Z,2.73
2018-05-12T12:26:32.614Z,4.13
2018-05-12T12:29:02.524Z,3.23
2018-05-12T12:31:32.440Z,2.90
2018-05-12T12:34:02.357Z,2.67
2018-05-12T12:36:32.285Z,3.30
2018-05-12T12:39:02.202Z,3.70
2018-05-12T12:41:32.091Z,4.30
2018-05-12T12:44:02.015Z,2.93
2018-05-12T12:46:32.774Z,2.80
2018-05-12T12:49:03.477Z,3.70
2018-05-12T12:51:33.443Z,2.80
2018-05-12T12:54:03.394Z,4.77
2018-05-12T12:56:33.352Z,2.93
2018-05-12T12:59:03.478Z,3.23
2018-05-12T13:01:33.911Z,2.67
2018-05-12T13:04:04.973Z,4.43
2018-05-12T13:06:35.662Z,3.67
2018-05-12T13:09:06.433Z,3.37
2018-05-12T13:11:37.160Z,3.07
2018-05-12T13:14:07.291Z,4.27
2018-05-12T13:16:37.457Z,2.40
2018-05-12T13:19:07.396Z,3.27
2018-05-12T13:21:37.579Z,3.57
2018-05-12T13:24:08.402Z,5.17
2018-05-12T13:26:38.325Z,2.73
2018-05-12T13:29:08.295Z,2.57
2018-05-12T13:31:39.018Z,3.13
2018-05-12T13:34:08.965Z,3.47
2018-05-12T13:36:39.070Z,2.47
2018-05-12T13:39:08.987Z,3.10
2018-05-12T13:41:39.020Z,3.80
2018-05-12T13:44:09.000Z,4.47
2018-05-12T13:46:39.010Z,2.40
2018-05-12T13:49:08.960Z,2.90
2018-05-12T13:51:38.935Z,3.00
2018-05-12T13:54:09.620Z,4.07
2018-05-12T13:56:40.140Z,4.50
2018-05-12T13:59:10.301Z,2.73
2018-05-12T14:01:40.381Z,4.40
2018-05-12T14:04:10.287Z,4.00
2018-05-12T14:06:40.224Z,3.17
2018-05-12T14:09:10.141Z,2.33
2018-05-12T14:11:40.052Z,2.43
2018-05-12T14:14:09.976Z,3.13
2018-05-12T14:16:39.894Z,3.67
2018-05-12T14:19:09.818Z,2.87
2018-05-12T14:21:40.530Z,2.20
2018-05-12T14:24:12.432Z,2.60
2018-05-12T14:26:43.123Z,2.50
2018-05-12T14:29:13.038Z,4.40
2018-05-12T14:31:42.943Z,4.90
2018-05-12T14:34:12.871Z,2.40
2018-05-12T14:36:42.823Z,3.33
2018-05-12T14:39:12.789Z,2.97
2018-05-12T14:41:42.721Z,3.42
2018-05-12T14:44:12.669Z,2.60
2018-05-12T14:46:42.608Z,3.92
2018-05-12T14:49:12.525Z,3.25
2018-05-12T14:51:42.475Z,3.62
2018-05-12T14:54:12.410Z,2.30
2018-05-12T14:56:43.138Z,3.28
2018-05-12T14:59:13.831Z,2.80
2018-05-12T15:01:43.780Z,5.55
2018-05-12T15:04:14.463Z,2.83
2018-05-12T15:06:44.409Z,3.75
2018-05-12T15:09:14.291Z,2.93
2018-05-12T15:11:44.243Z,3.10
2018-05-12T15:14:14.163Z,3.17
2018-05-12T15:16:44.071Z,3.40
2018-05-12T15:19:14.768Z,4.37
2018-05-12T15:21:44.656Z,2.50
2018-05-12T15:24:14.601Z,2.63
2018-05-12T15:26:44.543Z,2.77
2018-05-12T15:29:15.210Z,2.97
2018-05-12T15:31:45.153Z,2.93
2018-05-12T15:34:15.074Z,2.63
2018-05-12T15:36:44.981Z,3.03
2018-05-12T15:39:14.895Z,3.47
2018-05-12T15:41:44.810Z,2.97
2018-05-12T15:44:14.795Z,3.23
2018-05-12T15:46:45.439Z,3.20
2018-05-12T15:49:28.730Z,4.67
2018-05-12T15:51:58.650Z,6.70
2018-05-12T15:54:28.639Z,2.93
2018-05-12T15:56:59.333Z,2.63
2018-05-12T15:59:29.252Z,3.10
2018-05-12T16:01:59.181Z,4.17
2018-05-12T16:04:29.103Z,5.33
2018-05-12T16:06:59.014Z,4.17
2018-05-12T16:09:28.954Z,4.07
2018-05-12T16:11:58.850Z,4.83
2018-05-12T16:14:29.544Z,4.57
2018-05-12T16:16:59.449Z,4.30
2018-05-12T16:19:29.356Z,3.03
2018-05-12T16:21:59.277Z,3.07
2018-05-12T16:24:29.270Z,3.23
2018-05-12T16:26:59.194Z,3.23
2018-05-12T16:29:29.133Z,3.80
2018-05-12T16:31:59.066Z,2.77
2018-05-12T16:34:29.014Z,2.50
2018-05-12T16:36:58.919Z,3.83
2018-05-12T16:39:29.616Z,3.30
2018-05-12T16:41:59.540Z,5.23
2018-05-12T16:44:29.434Z,2.67
2018-05-12T16:46:59.359Z,3.37
2018-05-12T16:49:29.273Z,3.43
2018-05-12T16:51:59.995Z,3.57
2018-05-12T16:54:29.903Z,4.00
2018-05-12T16:56:59.823Z,2.83
2018-05-12T16:59:29.755Z,3.17
2018-05-12T17:01:59.682Z,2.80
2018-05-12T17:04:30.346Z,3.10
2018-05-12T17:07:00.273Z,4.07
2018-05-12T17:09:30.204Z,3.10
2018-05-12T17:12:10.759Z,2.90
2018-05-12T17:14:40.684Z,3.40
2018-05-12T17:17:10.593Z,2.50
2018-05-12T17:19:40.509Z,3.53
2018-05-12T17:22:10.412Z,3.73
2018-05-12T17:24:40.327Z,4.00
2018-05-12T17:27:10.249Z,2.80
2018-05-12T17:29:40.142Z,2.83
2018-05-12T17:32:10.862Z,3.40
2018-05-12T17:34:40.783Z,3.30
2018-05-12T17:37:10.716Z,5.97
2018-05-12T17:39:40.621Z,3.40
2018-05-12T17:42:10.530Z,3.07
2018-05-12T17:44:40.448Z,3.30
2018-05-12T17:47:10.333Z,3.40
2018-05-12T17:49:40.262Z,5.70
2018-05-12T17:52:10.187Z,3.47
2018-05-12T17:54:40.139Z,4.20
2018-05-12T17:57:10.853Z,3.40
2018-05-12T17:59:40.772Z,4.80
2018-05-12T18:02:10.664Z,4.70
2018-05-12T18:04:40.594Z,6.17
2018-05-12T18:07:10.491Z,5.73
2018-05-12T18:09:40.408Z,3.97
2018-05-12T18:12:10.341Z,6.40
2018-05-12T18:14:40.280Z,4.93
2018-05-12T18:17:11.000Z,5.50
2018-05-12T18:19:40.894Z,5.50
2018-05-12T18:22:10.802Z,7.77
2018-05-12T18:24:40.754Z,5.53
2018-05-12T18:27:10.700Z,9.27
2018-05-12T18:29:40.628Z,5.30
2018-05-12T18:32:10.540Z,5.77
2018-05-12T18:34:41.459Z,5.73
2018-05-12T18:37:11.372Z,5.00
2018-05-12T18:39:41.315Z,5.37
2018-05-12T18:42:11.231Z,6.40
2018-05-12T18:44:41.181Z,6.50
2018-05-12T18:47:11.833Z,5.87
2018-05-12T18:49:41.768Z,5.23
2018-05-12T18:52:11.670Z,6.00
2018-05-12T18:54:41.638Z,6.63
2018-05-12T18:57:11.534Z,5.63
2018-05-12T18:59:41.510Z,4.43
2018-05-12T19:02:11.442Z,5.77
2018-05-12T19:04:41.402Z,5.37
2018-05-12T19:07:12.109Z,5.20
2018-05-12T19:09:42.075Z,5.23
2018-05-12T19:12:12.006Z,5.27
2018-05-12T19:14:41.932Z,5.43
2018-05-12T19:17:11.930Z,6.53
2018-05-12T19:19:41.822Z,6.40
2018-05-12T19:22:11.735Z,9.23
2018-05-12T19:24:41.685Z,6.40
2018-05-12T19:27:11.607Z,7.10
2018-05-12T19:29:41.517Z,6.37
2018-05-12T19:32:11.426Z,6.37
2018-05-12T19:34:41.327Z,6.53
2018-05-12T19:37:11.250Z,7.27
2018-05-12T19:39:41.164Z,7.60
2018-05-12T19:42:11.090Z,7.93
2018-05-12T19:44:40.997Z,7.23
2018-05-12T19:47:10.926Z,7.70
2018-05-12T19:49:40.864Z,8.73
2018-05-12T19:52:11.551Z,7.80
2018-05-12T19:54:41.458Z,8.30
2018-05-12T19:57:11.354Z,7.47
2018-05-12T19:59:41.258Z,7.47
2018-05-12T20:02:11.172Z,7.80
2018-05-12T20:04:41.132Z,7.97
2018-05-12T20:07:11.039Z,7.97
2018-05-12T20:09:40.991Z,8.90
2018-05-12T20:12:11.683Z,7.50
2018-05-12T20:14:41.644Z,7.40
2018-05-12T20:17:12.327Z,7.70
2018-05-12T20:19:42.275Z,10.53
2018-05-12T20:22:12.930Z,7.67
2018-05-12T20:24:42.879Z,8.27
2018-05-12T20:27:12.829Z,8.70
2018-05-12T20:29:43.528Z,7.83
2018-05-12T20:32:14.214Z,10.10
2018-05-12T20:34:44.138Z,8.87
2018-05-12T20:37:14.110Z,10.03
2018-05-12T20:39:44.038Z,8.57
2018-05-12T20:42:14.734Z,9.17
2018-05-12T20:44:44.693Z,9.03
2018-05-12T20:47:14.620Z,9.13
2018-05-12T20:49:44.557Z,9.13
2018-05-12T20:52:14.459Z,9.03
2018-05-12T20:54:44.456Z,8.73
2018-05-12T20:57:14.386Z,13.00
2018-05-12T20:59:44.350Z,11.47
2018-05-12T21:02:14.277Z,9.60
2018-05-12T21:04:45.029Z,9.10
2018-05-12T21:07:14.943Z,8.97
2018-05-12T21:09:44.893Z,9.77
2018-05-12T21:12:15.590Z,11.37
2018-05-12T21:14:45.561Z,10.27
2018-05-12T21:17:15.464Z,9.63
2018-05-12T21:19:46.141Z,10.27
2018-05-12T21:22:16.095Z,10.60
2018-05-12T21:24:46.819Z,10.80
2018-05-12T21:27:16.746Z,11.57
2018-05-12T21:29:46.680Z,11.27
2018-05-12T21:32:18.550Z,11.67
2018-05-12T21:34:49.229Z,11.93
2018-05-12T21:37:19.178Z,12.20
2018-05-12T21:39:49.088Z,11.77
2018-05-12T21:42:19.014Z,12.93
2018-05-12T21:44:48.932Z,15.23
2018-05-12T21:47:27.219Z,12.97
2018-05-12T21:49:57.159Z,13.37
2018-05-12T21:52:27.847Z,13.10
2018-05-12T21:54:57.773Z,12.83
2018-05-12T21:57:27.736Z,14.47
2018-05-12T21:59:57.666Z,13.27
2018-05-12T22:02:27.618Z,13.90
2018-05-12T22:04:57.560Z,13.30
2018-05-12T22:07:28.246Z,13.93
2018-05-12T22:09:58.148Z,15.00
2018-05-12T22:12:28.056Z,13.87
2018-05-12T22:14:57.970Z,16.73
2018-05-12T22:17:27.892Z,18.60
2018-05-12T22:19:57.819Z,16.17
2018-05-12T22:22:27.738Z,17.67
2018-05-12T22:24:57.689Z,16.57
2018-05-12T22:27:28.386Z,16.77
2018-05-12T22:29:58.317Z,18.10
2018-05-12T22:32:28.235Z,17.63
2018-05-12T22:34:58.169Z,17.97
2018-05-12T22:37:28.088Z,19.13
2018-05-12T22:39:58.016Z,19.33
2018-05-12T22:42:27.925Z,18.13
2018-05-12T22:44:57.849Z,20.20
2018-05-12T22:47:27.794Z,19.30
2018-05-12T22:49:57.738Z,20.73
2018-05-12T22:52:28.449Z,19.60
2018-05-12T22:54:58.378Z,20.93
2018-05-12T22:57:29.078Z,21.03
2018-05-12T22:59:59.011Z,21.60
2018-05-12T23:02:28.943Z,21.03
2018-05-12T23:04:59.635Z,20.50
2018-05-12T23:07:29.546Z,19.47
2018-05-12T23:09:59.485Z,21.93
2018-05-12T23:12:30.176Z,21.73
2018-05-12T23:15:00.108Z,22.07
2018-05-12T23:17:30.038Z,22.60
2018-05-12T23:19:59.952Z,22.23
2018-05-12T23:22:29.890Z,22.17
2018-05-12T23:25:00.600Z,19.40
2018-05-12T23:27:30.514Z,20.67
2018-05-12T23:30:01.245Z,23.27
2018-05-12T23:32:31.184Z,21.70
2018-05-12T23:35:01.120Z,22.57
2018-05-12T23:37:31.095Z,22.20
2018-05-12T23:40:01.796Z,20.53
2018-05-12T23:42:31.711Z,22.30
2018-05-12T23:45:01.644Z,22.70
2018-05-12T23:47:31.590Z,21.47
2018-05-12T23:50:01.518Z,22.90
2018-05-12T23:52:31.497Z,21.50
2018-05-12T23:55:02.180Z,22.33
2018-05-12T23:57:32.148Z,23.47
